sensor_id;sensor_type;location;lat;lon;timestamp;temperature;humidity
39045;DHT22;52192;52.002;5.956;2022-09-28T00:00:06;11.30;81.40
39045;DHT22;52192;52.002;5.956;2022-09-28T00:02:32;11.30;81.50
39045;DHT22;52192;52.002;5.956;2022-09-28T00:05:00;11.20;81.40
39045;DHT22;52192;52.002;5.956;2022-09-28T00:07:27;11.20;81.50
39045;DHT22;52192;52.002;5.956;2022-09-28T00:09:53;11.20;81.60
39045;DHT22;52192;52.002;5.956;2022-09-28T00:12:18;11.10;81.50
39045;DHT22;52192;52.002;5.956;2022-09-28T00:14:46;11.20;81.70
39045;DHT22;52192;52.002;5.956;2022-09-28T00:17:11;11.10;81.60
39045;DHT22;52192;52.002;5.956;2022-09-28T00:19:37;11.10;81.60
39045;DHT22;52192;52.002;5.956;2022-09-28T00:22:05;11.10;81.60
39045;DHT22;52192;52.002;5.956;2022-09-28T00:24:31;11.10;81.70
39045;DHT22;52192;52.002;5.956;2022-09-28T00:26:57;11.00;81.70
39045;DHT22;52192;52.002;5.956;2022-09-28T00:29:33;11.00;81.80
39045;DHT22;52192;52.002;5.956;2022-09-28T00:32:05;11.10;81.80
39045;DHT22;52192;52.002;5.956;2022-09-28T00:34:36;11.10;81.70
39045;DHT22;52192;52.002;5.956;2022-09-28T00:37:03;11.10;81.80
39045;DHT22;52192;52.002;5.956;2022-09-28T00:39:29;11.00;81.60
39045;DHT22;52192;52.002;5.956;2022-09-28T00:41:58;11.00;81.70
39045;DHT22;52192;52.002;5.956;2022-09-28T00:47:00;10.80;81.90
39045;DHT22;52192;52.002;5.956;2022-09-28T00:49:33;10.80;82.10
39045;DHT22;52192;52.002;5.956;2022-09-28T00:52:00;10.80;82.10
39045;DHT22;52192;52.002;5.956;2022-09-28T00:54:27;10.80;82.10
39045;DHT22;52192;52.002;5.956;2022-09-28T00:56:53;10.80;82.00
39045;DHT22;52192;52.002;5.956;2022-09-28T00:59:19;10.90;81.90
39045;DHT22;52192;52.002;5.956;2022-09-28T01:01:44;10.90;81.90
39045;DHT22;52192;52.002;5.956;2022-09-28T01:04:10;10.90;82.30
39045;DHT22;52192;52.002;5.956;2022-09-28T01:06:37;10.90;81.70
39045;DHT22;52192;52.002;5.956;2022-09-28T01:09:07;10.90;81.50
39045;DHT22;52192;52.002;5.956;2022-09-28T01:11:37;10.90;81.40
39045;DHT22;52192;52.002;5.956;2022-09-28T01:14:05;10.90;81.40
39045;DHT22;52192;52.002;5.956;2022-09-28T01:19:54;10.80;81.40
39045;DHT22;52192;52.002;5.956;2022-09-28T01:28:07;10.80;81.30
39045;DHT22;52192;52.002;5.956;2022-09-28T01:30:55;10.70;81.30
39045;DHT22;52192;52.002;5.956;2022-09-28T01:33:27;10.70;81.40
39045;DHT22;52192;52.002;5.956;2022-09-28T01:36:01;10.70;81.50
39045;DHT22;52192;52.002;5.956;2022-09-28T01:38:33;10.70;81.70
39045;DHT22;52192;52.002;5.956;2022-09-28T01:41:03;10.70;81.80
39045;DHT22;52192;52.002;5.956;2022-09-28T01:43:32;10.70;81.80
39045;DHT22;52192;52.002;5.956;2022-09-28T01:46:13;10.70;81.80
39045;DHT22;52192;52.002;5.956;2022-09-28T01:49:14;10.70;81.80
39045;DHT22;52192;52.002;5.956;2022-09-28T01:54:28;10.70;81.90
39045;DHT22;52192;52.002;5.956;2022-09-28T01:57:14;10.70;82.00
39045;DHT22;52192;52.002;5.956;2022-09-28T01:59:48;10.70;81.90
39045;DHT22;52192;52.002;5.956;2022-09-28T02:02:20;10.70;81.90
39045;DHT22;52192;52.002;5.956;2022-09-28T02:05:20;10.60;81.90
39045;DHT22;52192;52.002;5.956;2022-09-28T02:08:16;10.60;81.70
39045;DHT22;52192;52.002;5.956;2022-09-28T02:10:50;10.60;82.00
39045;DHT22;52192;52.002;5.956;2022-09-28T02:13:27;10.50;82.00
39045;DHT22;52192;52.002;5.956;2022-09-28T02:16:16;10.50;82.00
39045;DHT22;52192;52.002;5.956;2022-09-28T02:18:43;10.50;82.20
39045;DHT22;52192;52.002;5.956;2022-09-28T02:21:14;10.40;82.40
39045;DHT22;52192;52.002;5.956;2022-09-28T02:23:46;10.40;82.40
39045;DHT22;52192;52.002;5.956;2022-09-28T02:26:17;10.40;82.30
39045;DHT22;52192;52.002;5.956;2022-09-28T02:28:44;10.40;82.20
39045;DHT22;52192;52.002;5.956;2022-09-28T02:31:10;10.40;82.10
39045;DHT22;52192;52.002;5.956;2022-09-28T02:33:38;10.50;82.00
39045;DHT22;52192;52.002;5.956;2022-09-28T02:36:05;10.50;82.00
39045;DHT22;52192;52.002;5.956;2022-09-28T02:38:31;10.50;82.00
39045;DHT22;52192;52.002;5.956;2022-09-28T03:02:06;10.60;82.70
39045;DHT22;52192;52.002;5.956;2022-09-28T03:04:47;10.60;82.70
39045;DHT22;52192;52.002;5.956;2022-09-28T03:07:43;10.60;82.90
39045;DHT22;52192;52.002;5.956;2022-09-28T03:12:56;10.70;83.00
39045;DHT22;52192;52.002;5.956;2022-09-28T03:15:29;10.60;83.20
39045;DHT22;52192;52.002;5.956;2022-09-28T03:17:56;10.60;83.30
39045;DHT22;52192;52.002;5.956;2022-09-28T03:20:21;10.60;83.30
39045;DHT22;52192;52.002;5.956;2022-09-28T03:22:47;10.70;83.20
39045;DHT22;52192;52.002;5.956;2022-09-28T03:25:13;10.70;83.00
39045;DHT22;52192;52.002;5.956;2022-09-28T03:27:40;10.70;83.00
39045;DHT22;52192;52.002;5.956;2022-09-28T03:30:07;10.70;83.00
39045;DHT22;52192;52.002;5.956;2022-09-28T03:32:32;10.70;83.00
39045;DHT22;52192;52.002;5.956;2022-09-28T03:34:58;10.70;83.10
39045;DHT22;52192;52.002;5.956;2022-09-28T03:37:25;10.70;83.00
39045;DHT22;52192;52.002;5.956;2022-09-28T03:39:51;10.70;83.10
39045;DHT22;52192;52.002;5.956;2022-09-28T03:42:17;10.80;83.10
39045;DHT22;52192;52.002;5.956;2022-09-28T03:44:43;10.70;83.00
39045;DHT22;52192;52.002;5.956;2022-09-28T03:47:08;10.80;83.10
39045;DHT22;52192;52.002;5.956;2022-09-28T03:49:34;10.80;83.00
39045;DHT22;52192;52.002;5.956;2022-09-28T03:52:00;10.90;83.00
39045;DHT22;52192;52.002;5.956;2022-09-28T03:54:26;10.90;82.80
39045;DHT22;52192;52.002;5.956;2022-09-28T03:56:52;10.90;82.70
39045;DHT22;52192;52.002;5.956;2022-09-28T03:59:18;10.90;82.70
39045;DHT22;52192;52.002;5.956;2022-09-28T04:01:44;10.90;82.70
39045;DHT22;52192;52.002;5.956;2022-09-28T04:04:12;10.90;82.60
39045;DHT22;52192;52.002;5.956;2022-09-28T04:06:38;10.90;82.60
39045;DHT22;52192;52.002;5.956;2022-09-28T04:09:04;10.90;82.60
39045;DHT22;52192;52.002;5.956;2022-09-28T04:11:30;10.90;82.60
39045;DHT22;52192;52.002;5.956;2022-09-28T04:13:55;10.90;82.50
39045;DHT22;52192;52.002;5.956;2022-09-28T04:16:21;10.90;82.50
39045;DHT22;52192;52.002;5.956;2022-09-28T04:18:47;10.90;82.50
39045;DHT22;52192;52.002;5.956;2022-09-28T04:21:14;10.90;82.50
39045;DHT22;52192;52.002;5.956;2022-09-28T04:23:49;11.00;82.50
39045;DHT22;52192;52.002;5.956;2022-09-28T04:26:23;11.00;82.50
39045;DHT22;52192;52.002;5.956;2022-09-28T04:28:50;11.00;82.40
39045;DHT22;52192;52.002;5.956;2022-09-28T04:31:46;10.90;82.40
39045;DHT22;52192;52.002;5.956;2022-09-28T04:34:14;11.00;82.50
39045;DHT22;52192;52.002;5.956;2022-09-28T04:36:45;10.90;82.50
39045;DHT22;52192;52.002;5.956;2022-09-28T04:39:12;10.90;82.40
39045;DHT22;52192;52.002;5.956;2022-09-28T04:41:38;10.90;82.40
39045;DHT22;52192;52.002;5.956;2022-09-28T04:44:04;10.80;82.30
39045;DHT22;52192;52.002;5.956;2022-09-28T04:46:30;10.80;82.40
39045;DHT22;52192;52.002;5.956;2022-09-28T04:48:56;10.80;82.40
39045;DHT22;52192;52.002;5.956;2022-09-28T04:51:22;10.80;82.40
39045;DHT22;52192;52.002;5.956;2022-09-28T04:53:48;10.70;82.40
39045;DHT22;52192;52.002;5.956;2022-09-28T04:56:15;10.70;82.40
39045;DHT22;52192;52.002;5.956;2022-09-28T04:58:42;10.70;82.40
39045;DHT22;52192;52.002;5.956;2022-09-28T05:01:11;10.60;82.40
39045;DHT22;52192;52.002;5.956;2022-09-28T05:03:37;10.60;82.40
39045;DHT22;52192;52.002;5.956;2022-09-28T05:06:04;10.50;82.40
39045;DHT22;52192;52.002;5.956;2022-09-28T05:08:31;10.50;82.40
39045;DHT22;52192;52.002;5.956;2022-09-28T05:10:59;10.40;82.40
39045;DHT22;52192;52.002;5.956;2022-09-28T05:13:24;10.40;82.50
39045;DHT22;52192;52.002;5.956;2022-09-28T05:15:55;10.40;82.40
39045;DHT22;52192;52.002;5.956;2022-09-28T05:18:22;10.40;82.30
39045;DHT22;52192;52.002;5.956;2022-09-28T05:20:48;10.30;82.10
39045;DHT22;52192;52.002;5.956;2022-09-28T05:23:14;10.30;81.90
39045;DHT22;52192;52.002;5.956;2022-09-28T05:25:40;10.30;81.90
39045;DHT22;52192;52.002;5.956;2022-09-28T05:28:07;10.20;81.80
39045;DHT22;52192;52.002;5.956;2022-09-28T05:30:34;10.10;81.70
39045;DHT22;52192;52.002;5.956;2022-09-28T05:33:00;10.10;81.80
39045;DHT22;52192;52.002;5.956;2022-09-28T05:35:26;10.10;81.90
39045;DHT22;52192;52.002;5.956;2022-09-28T05:37:52;10.10;81.90
39045;DHT22;52192;52.002;5.956;2022-09-28T05:40:19;10.00;82.00
39045;DHT22;52192;52.002;5.956;2022-09-28T05:42:45;10.00;82.10
39045;DHT22;52192;52.002;5.956;2022-09-28T05:45:10;10.00;82.10
39045;DHT22;52192;52.002;5.956;2022-09-28T05:47:41;10.00;82.20
39045;DHT22;52192;52.002;5.956;2022-09-28T05:50:08;10.00;82.20
39045;DHT22;52192;52.002;5.956;2022-09-28T05:52:37;10.00;82.20
39045;DHT22;52192;52.002;5.956;2022-09-28T05:55:05;10.00;82.10
39045;DHT22;52192;52.002;5.956;2022-09-28T05:57:31;10.00;81.90
39045;DHT22;52192;52.002;5.956;2022-09-28T05:59:56;10.00;82.00
39045;DHT22;52192;52.002;5.956;2022-09-28T06:02:23;10.00;82.00
39045;DHT22;52192;52.002;5.956;2022-09-28T06:04:49;10.00;82.00
39045;DHT22;52192;52.002;5.956;2022-09-28T06:07:16;10.00;82.00
39045;DHT22;52192;52.002;5.956;2022-09-28T06:09:42;10.00;81.90
39045;DHT22;52192;52.002;5.956;2022-09-28T06:12:08;10.00;81.80
39045;DHT22;52192;52.002;5.956;2022-09-28T06:14:34;10.00;81.70
39045;DHT22;52192;52.002;5.956;2022-09-28T06:16:59;10.00;81.70
39045;DHT22;52192;52.002;5.956;2022-09-28T06:19:25;10.00;81.70
39045;DHT22;52192;52.002;5.956;2022-09-28T06:21:50;10.00;81.70
39045;DHT22;52192;52.002;5.956;2022-09-28T06:24:16;10.00;81.70
39045;DHT22;52192;52.002;5.956;2022-09-28T06:26:42;9.90;81.70
39045;DHT22;52192;52.002;5.956;2022-09-28T06:29:07;10.00;82.60
39045;DHT22;52192;52.002;5.956;2022-09-28T06:31:33;10.00;82.10
39045;DHT22;52192;52.002;5.956;2022-09-28T06:33:59;10.00;82.20
39045;DHT22;52192;52.002;5.956;2022-09-28T06:36:28;10.00;82.40
39045;DHT22;52192;52.002;5.956;2022-09-28T06:38:55;10.10;82.50
39045;DHT22;52192;52.002;5.956;2022-09-28T06:41:21;10.10;82.40
39045;DHT22;52192;52.002;5.956;2022-09-28T06:43:47;10.20;82.30
39045;DHT22;52192;52.002;5.956;2022-09-28T06:46:13;10.20;82.30
39045;DHT22;52192;52.002;5.956;2022-09-28T06:48:40;10.30;82.30
39045;DHT22;52192;52.002;5.956;2022-09-28T06:51:05;10.30;82.30
39045;DHT22;52192;52.002;5.956;2022-09-28T06:53:31;10.40;82.40
39045;DHT22;52192;52.002;5.956;2022-09-28T06:55:57;10.40;82.40
39045;DHT22;52192;52.002;5.956;2022-09-28T06:58:23;10.50;82.40
39045;DHT22;52192;52.002;5.956;2022-09-28T07:00:50;10.60;82.30
39045;DHT22;52192;52.002;5.956;2022-09-28T07:03:20;10.60;82.30
39045;DHT22;52192;52.002;5.956;2022-09-28T07:05:48;10.60;82.30
39045;DHT22;52192;52.002;5.956;2022-09-28T07:08:14;10.60;82.20
39045;DHT22;52192;52.002;5.956;2022-09-28T07:10:42;10.70;82.30
39045;DHT22;52192;52.002;5.956;2022-09-28T07:13:08;10.80;82.20
39045;DHT22;52192;52.002;5.956;2022-09-28T07:15:34;10.90;82.10
39045;DHT22;52192;52.002;5.956;2022-09-28T07:18:02;10.90;82.00
39045;DHT22;52192;52.002;5.956;2022-09-28T07:20:30;11.00;82.00
39045;DHT22;52192;52.002;5.956;2022-09-28T07:22:59;11.00;81.90
39045;DHT22;52192;52.002;5.956;2022-09-28T07:25:26;11.10;81.90
39045;DHT22;52192;52.002;5.956;2022-09-28T07:27:58;11.10;81.90
39045;DHT22;52192;52.002;5.956;2022-09-28T07:30:25;11.20;81.90
39045;DHT22;52192;52.002;5.956;2022-09-28T07:32:54;11.30;81.90
39045;DHT22;52192;52.002;5.956;2022-09-28T07:35:20;11.30;81.80
39045;DHT22;52192;52.002;5.956;2022-09-28T07:37:47;11.40;81.70
39045;DHT22;52192;52.002;5.956;2022-09-28T07:40:13;11.50;81.70
39045;DHT22;52192;52.002;5.956;2022-09-28T07:43:04;11.60;81.60
39045;DHT22;52192;52.002;5.956;2022-09-28T07:45:30;11.70;81.50
39045;DHT22;52192;52.002;5.956;2022-09-28T07:48:01;11.70;81.50
39045;DHT22;52192;52.002;5.956;2022-09-28T07:50:27;11.80;81.40
39045;DHT22;52192;52.002;5.956;2022-09-28T07:52:55;11.80;81.20
39045;DHT22;52192;52.002;5.956;2022-09-28T07:55:20;11.90;81.10
39045;DHT22;52192;52.002;5.956;2022-09-28T07:57:46;12.00;80.90
39045;DHT22;52192;52.002;5.956;2022-09-28T08:00:13;12.10;80.90
39045;DHT22;52192;52.002;5.956;2022-09-28T08:02:38;12.10;80.70
39045;DHT22;52192;52.002;5.956;2022-09-28T08:05:04;12.10;80.50
39045;DHT22;52192;52.002;5.956;2022-09-28T08:07:30;12.20;80.50
39045;DHT22;52192;52.002;5.956;2022-09-28T08:09:57;12.20;80.50
39045;DHT22;52192;52.002;5.956;2022-09-28T08:12:22;12.30;80.30
39045;DHT22;52192;52.002;5.956;2022-09-28T08:14:48;12.30;80.10
39045;DHT22;52192;52.002;5.956;2022-09-28T08:17:15;12.40;80.10
39045;DHT22;52192;52.002;5.956;2022-09-28T08:19:41;12.40;79.80
39045;DHT22;52192;52.002;5.956;2022-09-28T08:22:25;12.50;79.80
39045;DHT22;52192;52.002;5.956;2022-09-28T08:24:50;12.60;79.80
39045;DHT22;52192;52.002;5.956;2022-09-28T08:27:16;12.60;79.50
39045;DHT22;52192;52.002;5.956;2022-09-28T08:29:42;12.70;79.40
39045;DHT22;52192;52.002;5.956;2022-09-28T08:32:09;12.80;79.20
39045;DHT22;52192;52.002;5.956;2022-09-28T08:34:39;12.90;79.00
39045;DHT22;52192;52.002;5.956;2022-09-28T08:37:06;13.00;78.50
39045;DHT22;52192;52.002;5.956;2022-09-28T08:39:34;13.10;78.50
39045;DHT22;52192;52.002;5.956;2022-09-28T08:44:52;13.30;78.00
39045;DHT22;52192;52.002;5.956;2022-09-28T08:47:31;13.40;77.90
39045;DHT22;52192;52.002;5.956;2022-09-28T08:50:22;13.60;77.50
39045;DHT22;52192;52.002;5.956;2022-09-28T08:52:55;13.80;77.40
39045;DHT22;52192;52.002;5.956;2022-09-28T08:58:09;13.80;77.10
39045;DHT22;52192;52.002;5.956;2022-09-28T09:00:48;13.80;76.90
39045;DHT22;52192;52.002;5.956;2022-09-28T09:03:30;13.80;76.60
39045;DHT22;52192;52.002;5.956;2022-09-28T09:11:33;14.30;75.90
39045;DHT22;52192;52.002;5.956;2022-09-28T09:22:42;14.40;74.40
39045;DHT22;52192;52.002;5.956;2022-09-28T09:25:19;14.40;74.80
39045;DHT22;52192;52.002;5.956;2022-09-28T09:30:32;14.60;74.10
39045;DHT22;52192;52.002;5.956;2022-09-28T09:38:59;14.70;72.20
39045;DHT22;52192;52.002;5.956;2022-09-28T09:46:55;14.50;72.30
39045;DHT22;52192;52.002;5.956;2022-09-28T09:52:20;15.00;71.80
39045;DHT22;52192;52.002;5.956;2022-09-28T09:54:59;15.20;70.70
39045;DHT22;52192;52.002;5.956;2022-09-28T09:57:44;15.20;70.50
39045;DHT22;52192;52.002;5.956;2022-09-28T10:00:15;15.10;70.90
39045;DHT22;52192;52.002;5.956;2022-09-28T10:02:42;15.20;70.20
39045;DHT22;52192;52.002;5.956;2022-09-28T10:10:27;15.80;69.70
39045;DHT22;52192;52.002;5.956;2022-09-28T10:12:53;15.90;69.30
39045;DHT22;52192;52.002;5.956;2022-09-28T10:15:25;15.90;69.20
39045;DHT22;52192;52.002;5.956;2022-09-28T10:17:52;15.70;69.10
39045;DHT22;52192;52.002;5.956;2022-09-28T10:20:19;15.50;69.40
39045;DHT22;52192;52.002;5.956;2022-09-28T10:22:46;15.40;70.00
39045;DHT22;52192;52.002;5.956;2022-09-28T10:25:12;15.30;69.80
39045;DHT22;52192;52.002;5.956;2022-09-28T10:27:42;15.30;70.30
39045;DHT22;52192;52.002;5.956;2022-09-28T10:30:20;15.60;70.40
39045;DHT22;52192;52.002;5.956;2022-09-28T10:32:49;15.90;69.40
39045;DHT22;52192;52.002;5.956;2022-09-28T10:37:56;16.00;66.90
39045;DHT22;52192;52.002;5.956;2022-09-28T10:40:49;15.90;67.40
39045;DHT22;52192;52.002;5.956;2022-09-28T10:43:25;15.70;67.30
39045;DHT22;52192;52.002;5.956;2022-09-28T10:48:44;15.40;67.40
39045;DHT22;52192;52.002;5.956;2022-09-28T10:51:10;15.50;67.70
39045;DHT22;52192;52.002;5.956;2022-09-28T10:53:36;15.40;67.80
39045;DHT22;52192;52.002;5.956;2022-09-28T10:56:22;15.50;68.00
39045;DHT22;52192;52.002;5.956;2022-09-28T10:58:51;15.60;67.40
39045;DHT22;52192;52.002;5.956;2022-09-28T11:01:23;15.60;67.50
39045;DHT22;52192;52.002;5.956;2022-09-28T11:03:55;15.50;67.20
39045;DHT22;52192;52.002;5.956;2022-09-28T11:06:31;15.50;67.60
39045;DHT22;52192;52.002;5.956;2022-09-28T11:09:03;15.40;67.80
39045;DHT22;52192;52.002;5.956;2022-09-28T11:11:30;15.40;68.10
39045;DHT22;52192;52.002;5.956;2022-09-28T11:14:04;15.40;68.20
39045;DHT22;52192;52.002;5.956;2022-09-28T11:16:32;15.30;67.50
39045;DHT22;52192;52.002;5.956;2022-09-28T11:19:04;15.40;68.30
39045;DHT22;52192;52.002;5.956;2022-09-28T11:21:41;16.00;68.40
39045;DHT22;52192;52.002;5.956;2022-09-28T11:24:21;16.40;66.80
39045;DHT22;52192;52.002;5.956;2022-09-28T11:26:53;16.60;65.50
39045;DHT22;52192;52.002;5.956;2022-09-28T11:29:34;16.70;65.20
39045;DHT22;52192;52.002;5.956;2022-09-28T11:32:02;16.70;65.40
39045;DHT22;52192;52.002;5.956;2022-09-28T11:34:34;16.80;64.80
39045;DHT22;52192;52.002;5.956;2022-09-28T11:48:03;16.50;64.90
39045;DHT22;52192;52.002;5.956;2022-09-28T11:53:08;16.70;65.00
39045;DHT22;52192;52.002;5.956;2022-09-28T11:55:43;17.00;63.70
39045;DHT22;52192;52.002;5.956;2022-09-28T12:00:53;17.10;62.70
39045;DHT22;52192;52.002;5.956;2022-09-28T12:03:27;17.20;62.90
39045;DHT22;52192;52.002;5.956;2022-09-28T12:06:00;17.10;62.10
39045;DHT22;52192;52.002;5.956;2022-09-28T12:08:34;16.90;62.50
39045;DHT22;52192;52.002;5.956;2022-09-28T12:11:19;16.80;62.80
39045;DHT22;52192;52.002;5.956;2022-09-28T12:13:48;16.70;63.40
39045;DHT22;52192;52.002;5.956;2022-09-28T12:16:27;16.60;63.50
39045;DHT22;52192;52.002;5.956;2022-09-28T12:19:11;16.50;63.70
39045;DHT22;52192;52.002;5.956;2022-09-28T12:21:50;16.40;63.40
39045;DHT22;52192;52.002;5.956;2022-09-28T12:27:03;16.50;64.20
39045;DHT22;52192;52.002;5.956;2022-09-28T12:30:05;17.10;62.40
39045;DHT22;52192;52.002;5.956;2022-09-28T12:32:55;17.60;61.60
39045;DHT22;52192;52.002;5.956;2022-09-28T12:38:37;18.20;58.90
39045;DHT22;52192;52.002;5.956;2022-09-28T12:41:25;18.40;56.70
39045;DHT22;52192;52.002;5.956;2022-09-28T12:44:09;18.50;55.80
39045;DHT22;52192;52.002;5.956;2022-09-28T12:46:47;18.80;56.20
39045;DHT22;52192;52.002;5.956;2022-09-28T12:51:53;19.20;54.50
39045;DHT22;52192;52.002;5.956;2022-09-28T12:54:38;19.40;54.70
39045;DHT22;52192;52.002;5.956;2022-09-28T13:00:29;19.30;53.90
39045;DHT22;52192;52.002;5.956;2022-09-28T13:19:57;19.20;54.60
39045;DHT22;52192;52.002;5.956;2022-09-28T13:25:00;18.80;55.40
39045;DHT22;52192;52.002;5.956;2022-09-28T13:27:32;18.30;55.40
39045;DHT22;52192;52.002;5.956;2022-09-28T13:30:00;18.00;56.50
39045;DHT22;52192;52.002;5.956;2022-09-28T13:32:28;17.80;56.90
39045;DHT22;52192;52.002;5.956;2022-09-28T13:34:56;17.60;57.70
39045;DHT22;52192;52.002;5.956;2022-09-28T13:37:24;17.40;58.20
39045;DHT22;52192;52.002;5.956;2022-09-28T13:39:52;17.30;58.90
39045;DHT22;52192;52.002;5.956;2022-09-28T13:47:56;17.10;59.90
39045;DHT22;52192;52.002;5.956;2022-09-28T13:58:49;16.10;62.70
39045;DHT22;52192;52.002;5.956;2022-09-28T14:01:27;15.90;63.80
39045;DHT22;52192;52.002;5.956;2022-09-28T14:04:15;15.70;64.10
39045;DHT22;52192;52.002;5.956;2022-09-28T14:07:08;15.60;64.70
39045;DHT22;52192;52.002;5.956;2022-09-28T14:12:49;15.50;65.60
39045;DHT22;52192;52.002;5.956;2022-09-28T14:18:20;15.60;66.20
39045;DHT22;52192;52.002;5.956;2022-09-28T14:21:46;15.70;66.40
39045;DHT22;52192;52.002;5.956;2022-09-28T14:24:05;15.70;67.00
39045;DHT22;52192;52.002;5.956;2022-09-28T14:29:35;15.50;68.00
39045;DHT22;52192;52.002;5.956;2022-09-28T14:32:23;15.50;67.60
39045;DHT22;52192;52.002;5.956;2022-09-28T14:35:02;15.50;67.70
39045;DHT22;52192;52.002;5.956;2022-09-28T14:37:36;15.40;67.80
39045;DHT22;52192;52.002;5.956;2022-09-28T14:40:36;15.40;68.10
39045;DHT22;52192;52.002;5.956;2022-09-28T14:48:42;15.50;68.20
39045;DHT22;52192;52.002;5.956;2022-09-28T14:59:05;15.30;68.00
39045;DHT22;52192;52.002;5.956;2022-09-28T15:01:32;15.30;68.20
39045;DHT22;52192;52.002;5.956;2022-09-28T15:04:03;15.30;68.30
39045;DHT22;52192;52.002;5.956;2022-09-28T15:06:45;15.30;68.40
39045;DHT22;52192;52.002;5.956;2022-09-28T15:09:32;15.40;68.50
39045;DHT22;52192;52.002;5.956;2022-09-28T15:12:04;15.40;68.60
39045;DHT22;52192;52.002;5.956;2022-09-28T15:14:34;15.50;68.80
39045;DHT22;52192;52.002;5.956;2022-09-28T15:17:10;15.40;68.90
39045;DHT22;52192;52.002;5.956;2022-09-28T15:22:24;15.40;69.20
39045;DHT22;52192;52.002;5.956;2022-09-28T15:24:56;15.40;69.30
39045;DHT22;52192;52.002;5.956;2022-09-28T15:27:22;15.40;69.30
39045;DHT22;52192;52.002;5.956;2022-09-28T15:29:58;15.30;69.40
39045;DHT22;52192;52.002;5.956;2022-09-28T15:32:25;15.30;69.70
39045;DHT22;52192;52.002;5.956;2022-09-28T15:34:51;15.30;69.80
39045;DHT22;52192;52.002;5.956;2022-09-28T15:37:32;15.30;70.00
39045;DHT22;52192;52.002;5.956;2022-09-28T15:40:00;15.30;70.00
39045;DHT22;52192;52.002;5.956;2022-09-28T15:42:32;15.20;70.10
39045;DHT22;52192;52.002;5.956;2022-09-28T15:47:33;15.20;69.80
39045;DHT22;52192;52.002;5.956;2022-09-28T15:50:00;15.10;69.90
39045;DHT22;52192;52.002;5.956;2022-09-28T15:55:04;15.10;70.00
39045;DHT22;52192;52.002;5.956;2022-09-28T15:57:38;15.00;70.00
39045;DHT22;52192;52.002;5.956;2022-09-28T16:00:28;15.10;70.20
39045;DHT22;52192;52.002;5.956;2022-09-28T16:11:29;15.00;70.20
39045;DHT22;52192;52.002;5.956;2022-09-28T16:14:15;15.00;70.30
39045;DHT22;52192;52.002;5.956;2022-09-28T16:16:49;14.90;70.10
39045;DHT22;52192;52.002;5.956;2022-09-28T16:19:34;14.90;70.20
39045;DHT22;52192;52.002;5.956;2022-09-28T16:22:06;14.90;70.20
39045;DHT22;52192;52.002;5.956;2022-09-28T16:24:38;14.90;70.20
39045;DHT22;52192;52.002;5.956;2022-09-28T16:30:20;15.00;70.30
39045;DHT22;52192;52.002;5.956;2022-09-28T16:33:27;15.00;70.20
39045;DHT22;52192;52.002;5.956;2022-09-28T16:35:53;15.00;70.20
39045;DHT22;52192;52.002;5.956;2022-09-28T16:38:19;14.90;70.80
39045;DHT22;52192;52.002;5.956;2022-09-28T16:40:46;14.90;70.90
39045;DHT22;52192;52.002;5.956;2022-09-28T16:43:25;14.90;70.80
39045;DHT22;52192;52.002;5.956;2022-09-28T16:46:07;14.90;71.00
39045;DHT22;52192;52.002;5.956;2022-09-28T16:48:42;14.80;71.10
39045;DHT22;52192;52.002;5.956;2022-09-28T16:51:19;14.80;71.30
39045;DHT22;52192;52.002;5.956;2022-09-28T16:53:46;14.70;71.40
39045;DHT22;52192;52.002;5.956;2022-09-28T16:56:32;14.70;71.50
39045;DHT22;52192;52.002;5.956;2022-09-28T16:58:58;14.70;71.50
39045;DHT22;52192;52.002;5.956;2022-09-28T17:01:24;14.70;71.60
39045;DHT22;52192;52.002;5.956;2022-09-28T17:03:50;14.60;71.60
39045;DHT22;52192;52.002;5.956;2022-09-28T17:06:17;14.50;71.70
39045;DHT22;52192;52.002;5.956;2022-09-28T17:08:44;14.50;71.90
39045;DHT22;52192;52.002;5.956;2022-09-28T17:11:15;14.50;72.00
39045;DHT22;52192;52.002;5.956;2022-09-28T17:13:41;14.40;71.90
39045;DHT22;52192;52.002;5.956;2022-09-28T17:16:15;14.40;72.00
39045;DHT22;52192;52.002;5.956;2022-09-28T17:18:42;14.30;72.20
39045;DHT22;52192;52.002;5.956;2022-09-28T17:21:18;14.30;72.50
39045;DHT22;52192;52.002;5.956;2022-09-28T17:23:46;14.30;72.60
39045;DHT22;52192;52.002;5.956;2022-09-28T17:28:46;14.20;73.10
39045;DHT22;52192;52.002;5.956;2022-09-28T17:31:14;14.20;73.20
39045;DHT22;52192;52.002;5.956;2022-09-28T17:36:32;14.10;73.30
39045;DHT22;52192;52.002;5.956;2022-09-28T17:38:58;14.00;73.40
39045;DHT22;52192;52.002;5.956;2022-09-28T17:41:24;14.00;73.50
39045;DHT22;52192;52.002;5.956;2022-09-28T17:43:50;13.90;73.60
39045;DHT22;52192;52.002;5.956;2022-09-28T17:46:41;13.90;73.80
39045;DHT22;52192;52.002;5.956;2022-09-28T17:49:10;13.90;73.90
39045;DHT22;52192;52.002;5.956;2022-09-28T17:51:37;13.80;74.10
39045;DHT22;52192;52.002;5.956;2022-09-28T17:54:04;13.80;74.30
39045;DHT22;52192;52.002;5.956;2022-09-28T17:56:30;13.80;74.50
39045;DHT22;52192;52.002;5.956;2022-09-28T17:59:05;13.70;74.50
39045;DHT22;52192;52.002;5.956;2022-09-28T18:01:32;13.70;74.50
39045;DHT22;52192;52.002;5.956;2022-09-28T18:04:03;13.70;74.70
39045;DHT22;52192;52.002;5.956;2022-09-28T18:06:29;13.70;74.80
39045;DHT22;52192;52.002;5.956;2022-09-28T18:08:56;13.60;74.80
39045;DHT22;52192;52.002;5.956;2022-09-28T18:11:22;13.60;74.80
39045;DHT22;52192;52.002;5.956;2022-09-28T18:13:48;13.60;74.80
39045;DHT22;52192;52.002;5.956;2022-09-28T18:16:14;13.50;74.80
39045;DHT22;52192;52.002;5.956;2022-09-28T18:18:40;13.50;74.80
39045;DHT22;52192;52.002;5.956;2022-09-28T18:21:06;13.40;74.80
39045;DHT22;52192;52.002;5.956;2022-09-28T18:23:36;13.40;74.80
39045;DHT22;52192;52.002;5.956;2022-09-28T18:26:02;13.30;74.90
39045;DHT22;52192;52.002;5.956;2022-09-28T18:28:28;13.30;74.90
39045;DHT22;52192;52.002;5.956;2022-09-28T18:30:53;13.30;75.00
39045;DHT22;52192;52.002;5.956;2022-09-28T18:33:19;13.20;75.00
39045;DHT22;52192;52.002;5.956;2022-09-28T18:35:52;13.20;75.00
39045;DHT22;52192;52.002;5.956;2022-09-28T18:38:18;13.10;75.00
39045;DHT22;52192;52.002;5.956;2022-09-28T18:40:45;13.00;75.00
39045;DHT22;52192;52.002;5.956;2022-09-28T18:43:11;13.00;75.00
39045;DHT22;52192;52.002;5.956;2022-09-28T18:45:36;13.00;75.00
39045;DHT22;52192;52.002;5.956;2022-09-28T18:48:02;12.90;75.00
39045;DHT22;52192;52.002;5.956;2022-09-28T18:50:28;12.90;75.00
39045;DHT22;52192;52.002;5.956;2022-09-28T18:52:53;12.80;75.00
39045;DHT22;52192;52.002;5.956;2022-09-28T18:55:36;12.70;75.00
39045;DHT22;52192;52.002;5.956;2022-09-28T18:58:04;12.70;75.00
39045;DHT22;52192;52.002;5.956;2022-09-28T19:00:31;12.60;75.00
39045;DHT22;52192;52.002;5.956;2022-09-28T19:02:56;12.60;75.00
39045;DHT22;52192;52.002;5.956;2022-09-28T19:05:22;12.50;75.00